createdAt,value
2016-12-05T13:19:40.843Z,64.4
2016-12-05T13:20:51.155Z,64.11
2016-12-05T13:22:01.464Z,63.23
2016-12-05T13:23:11.774Z,64.47
2016-12-05T13:24:22.087Z,64.37
2016-12-05T13:25:46.968Z,64.27
2016-12-05T13:26:57.291Z,63.3
2016-12-05T13:28:07.606Z,64.27
2016-12-05T13:29:17.925Z,64.47
2016-12-05T13:30:28.239Z,63.62
2016-12-05T13:31:38.552Z,62.68
2016-12-05T13:32:49.823Z,62.49
2016-12-05T13:34:00.140Z,63.36
2016-12-05T13:35:10.469Z,63.13
2016-12-05T13:36:20.990Z,64.65
2016-12-05T13:37:31.315Z,64.56
2016-12-05T13:38:42.110Z,64.59
2016-12-05T13:40:07.031Z,64.88
2016-12-05T13:41:17.350Z,64.69
2016-12-05T13:42:27.671Z,64.4
2016-12-05T13:43:38.030Z,62.88
2016-12-05T13:44:48.369Z,62.88
2016-12-05T13:45:58.689Z,63.65
2016-12-05T13:47:09.012Z,63.26
2016-12-05T13:48:19.331Z,61.61
2016-12-05T13:49:29.672Z,60.58
2016-12-05T13:50:39.992Z,60.19
2016-12-05T13:51:50.323Z,59.8
2016-12-05T13:53:00.640Z,59.83
2016-12-05T13:54:25.536Z,60.12
2016-12-05T13:55:35.857Z,59.74
2016-12-05T13:56:46.183Z,59.28
2016-12-05T13:57:56.502Z,59.83
2016-12-05T13:59:06.823Z,59.28
2016-12-05T14:00:17.178Z,58.59
2016-12-05T14:01:27.638Z,57.95
2016-12-05T14:02:38.079Z,57.75
2016-12-05T14:03:48.716Z,57.17
2016-12-05T14:04:59.157Z,57.85
2016-12-05T14:06:09.596Z,57.82
2016-12-05T14:07:20.136Z,58.28
2016-12-05T14:08:30.574Z,59.34
2016-12-05T14:09:41.014Z,59.18
2016-12-05T14:10:51.455Z,57.92
2016-12-05T14:12:01.894Z,57.17
2016-12-05T14:13:12.343Z,57.39
2016-12-05T14:14:23.204Z,55.54
2016-12-05T14:15:34.140Z,55.57
2016-12-05T14:16:44.594Z,55.37
2016-12-05T14:17:55.038Z,55.76
2016-12-05T14:19:05.480Z,56.54
2016-12-05T14:20:30.476Z,55.74
2016-12-05T14:21:40.920Z,56.12
2016-12-05T14:23:05.914Z,55.35
2016-12-05T14:24:16.359Z,54.96
2016-12-05T14:25:26.803Z,54.96
2016-12-05T14:26:37.247Z,55.15
2016-12-05T14:27:47.691Z,54.69
2016-12-05T14:28:58.146Z,55.57
2016-12-05T14:30:09.312Z,55.64
2016-12-05T14:31:19.757Z,55.35
2016-12-05T14:32:30.212Z,55.37
2016-12-05T14:33:40.669Z,56.54
2016-12-05T14:34:51.109Z,55.83
2016-12-05T14:36:01.562Z,54.6
2016-12-05T14:37:12.238Z,53.75
2016-12-05T14:38:22.686Z,53.77
2016-12-05T14:39:33.185Z,52.99
2016-12-05T14:40:58.180Z,52.7
2016-12-05T14:42:23.695Z,53.36
2016-12-05T14:43:34.166Z,53.94
2016-12-05T14:44:59.166Z,54.3
2016-12-05T14:46:09.666Z,55.74
2016-12-05T14:47:20.130Z,55.74
2016-12-05T14:48:31.694Z,56.32
2016-12-05T14:49:42.180Z,56.29
2016-12-05T14:50:52.644Z,56.29
2016-12-05T14:52:03.100Z,57.36
2016-12-05T14:53:13.578Z,56.56
2016-12-05T14:54:24.057Z,57.04
2016-12-05T14:55:34.588Z,57.53
2016-12-05T14:56:45.071Z,57.82
2016-12-05T14:57:55.555Z,55.98
2016-12-05T14:59:06.523Z,56.26
2016-12-05T15:00:17.489Z,56
2016-12-05T15:01:28.139Z,56.36
2016-12-05T15:02:38.610Z,57.62
2016-12-05T15:05:14.073Z,56.36
2016-12-05T15:06:39.069Z,58.37
2016-12-05T15:08:04.693Z,58.34
2016-12-05T15:09:15.660Z,58.67
2016-12-05T15:10:26.125Z,59.05
2016-12-05T15:11:36.596Z,59.05
2016-12-05T15:12:47.068Z,58.67
2016-12-05T15:13:57.547Z,58.37
2016-12-05T15:15:08.019Z,57.82
2016-12-05T15:16:18.514Z,57.72
2016-12-05T15:17:28.959Z,57.53
2016-12-05T15:18:39.466Z,57.72
2016-12-05T15:19:50.087Z,57.65
2016-12-05T15:21:00.921Z,56.1
2016-12-05T15:22:12.205Z,56.16
2016-12-05T15:23:22.771Z,57.04
2016-12-05T15:24:33.308Z,57.43
2016-12-05T15:25:44.374Z,57.04
2016-12-05T15:26:54.918Z,56.65
2016-12-05T15:28:05.493Z,56.16
2016-12-05T15:29:16.070Z,56.26
2016-12-05T15:30:26.623Z,57.04
2016-12-05T15:31:37.205Z,56.68
2016-12-05T15:32:48.199Z,56.36
2016-12-05T15:33:58.786Z,56.2
2016-12-05T15:35:09.350Z,55.39
2016-12-05T15:36:19.911Z,54.83
2016-12-05T15:38:55.765Z,55.29
2016-12-05T15:40:06.320Z,55.19
2016-12-05T15:41:16.898Z,55.88
2016-12-05T15:42:27.478Z,55.49
2016-12-05T15:43:52.846Z,55.68
2016-12-05T15:45:17.931Z,55.68
2016-12-05T15:46:43.062Z,55
2016-12-05T15:47:53.610Z,56.16
2016-12-05T15:49:04.215Z,56.34
2016-12-05T15:50:14.795Z,55.49
2016-12-05T15:51:25.356Z,56.36
2016-12-05T15:52:35.916Z,56.34
2016-12-05T15:54:00.995Z,56.43
2016-12-05T15:55:11.561Z,57.21
2016-12-05T15:56:22.109Z,57.5
2016-12-05T15:57:32.678Z,56.43
2016-12-05T15:58:43.255Z,55
2016-12-05T15:59:53.812Z,54.2
2016-12-05T16:01:04.869Z,54.03
2016-12-05T16:02:15.922Z,55
2016-12-05T16:03:26.482Z,55.29
2016-12-05T16:04:51.562Z,55.68
2016-12-05T16:06:02.126Z,55.98
2016-12-05T16:07:12.685Z,55.17
2016-12-05T16:08:52.282Z,55.17
2016-12-05T16:10:03.043Z,55.65
2016-12-05T16:11:13.600Z,55.94
2016-12-05T16:12:24.182Z,56.56
2016-12-05T16:13:34.806Z,55.98
2016-12-05T16:14:59.879Z,54.88
2016-12-05T16:16:10.440Z,53.35
2016-12-05T16:17:20.998Z,54.2
2016-12-05T16:18:31.553Z,55.1
2016-12-05T16:19:42.592Z,54.03
2016-12-05T16:20:53.132Z,55.29
2016-12-05T16:22:03.707Z,54.58
2016-12-05T16:23:28.812Z,55.07
2016-12-05T16:24:39.381Z,54.29
2016-12-05T16:25:49.952Z,54.97
2016-12-05T16:27:01.763Z,54.2
2016-12-05T16:28:26.826Z,54.68
2016-12-05T16:29:37.394Z,53.81
2016-12-05T16:30:47.952Z,53.81
2016-12-05T16:31:58.525Z,54.68
2016-12-05T16:33:09.100Z,55.65
2016-12-05T16:34:19.681Z,53.61
2016-12-05T16:35:30.297Z,53.61
2016-12-05T16:36:40.993Z,53.71
2016-12-05T16:37:51.553Z,53.52
2016-12-05T16:39:02.096Z,53.71
2016-12-05T16:40:12.679Z,53.22
2016-12-05T16:41:23.321Z,52.55
2016-12-05T16:42:33.990Z,52.64
2016-12-05T16:43:44.565Z,53.22
2016-12-05T16:44:55.139Z,53.22
2016-12-05T16:46:05.705Z,52.45
2016-12-05T16:48:41.468Z,53.35
2016-12-05T16:49:52.043Z,52.19
2016-12-05T16:51:02.610Z,51.21
2016-12-05T16:52:27.732Z,51.11
2016-12-05T16:53:38.404Z,51.11
2016-12-05T16:54:48.977Z,51.79
2016-12-05T16:55:59.534Z,50.14
2016-12-05T16:57:10.118Z,51.21
2016-12-05T16:58:21.084Z,51.77
2016-12-05T16:59:31.649Z,52.74
2016-12-05T17:00:42.245Z,53.52
2016-12-05T17:01:52.816Z,52.64
2016-12-05T17:03:03.383Z,52.45
2016-12-05T17:04:13.960Z,51.97
2016-12-05T17:05:24.540Z,52.15
2016-12-05T17:06:49.636Z,52.57
2016-12-05T17:08:00.398Z,51.21
2016-12-05T17:09:10.940Z,51.18
2016-12-05T17:10:21.700Z,51.09
2016-12-05T17:11:32.765Z,52.84
2016-12-05T17:12:43.816Z,52.45
2016-12-05T17:13:54.396Z,52.23
2016-12-05T17:15:05.295Z,53.61
2016-12-05T17:16:30.382Z,52.64
2016-12-05T17:17:55.475Z,51.18
2016-12-05T17:19:07.062Z,50.99
2016-12-05T17:20:17.828Z,50.99
2016-12-05T17:21:42.920Z,50.99
2016-12-05T17:22:53.487Z,51.28
2016-12-05T17:24:04.078Z,51.7
2016-12-05T17:25:14.629Z,50.24
2016-12-05T17:26:25.299Z,49.85
2016-12-05T17:27:35.849Z,50.04
2016-12-05T17:28:46.402Z,50.53
2016-12-05T17:29:56.958Z,50.12
2016-12-05T17:31:07.519Z,50.04
2016-12-05T17:32:32.592Z,51.11
2016-12-05T17:33:43.154Z,51.01
2016-12-05T17:34:53.720Z,50.14
2016-12-05T17:36:04.314Z,49.85
2016-12-05T17:37:14.963Z,49.66
2016-12-05T17:38:40.052Z,51.01
2016-12-05T17:39:50.626Z,50.14
2016-12-05T17:41:15.915Z,49
2016-12-05T17:42:41.515Z,49.37
2016-12-05T17:43:52.090Z,49.37
2016-12-05T17:45:02.673Z,49.56
2016-12-05T17:46:13.238Z,50.53
2016-12-05T17:47:38.497Z,50.73
2016-12-05T17:48:49.082Z,49.97
2016-12-05T17:50:00.375Z,49.39
2016-12-05T17:51:10.963Z,49.17
2016-12-05T17:52:21.529Z,49.78
2016-12-05T17:53:32.091Z,50.07
2016-12-05T17:55:11.687Z,49.97
2016-12-05T17:56:22.451Z,49.87
2016-12-05T17:57:33.015Z,49.58
2016-12-05T17:58:43.588Z,48.8
2016-12-05T17:59:54.167Z,48.13
2016-12-05T18:01:04.770Z,48.41
2016-12-05T18:02:15.528Z,49.39
2016-12-05T18:03:26.112Z,48.61
2016-12-05T18:04:51.396Z,49
2016-12-05T18:06:01.961Z,49.27
2016-12-05T18:07:12.543Z,49.1
2016-12-05T18:08:23.302Z,50.36
2016-12-05T18:09:48.508Z,55.9
2016-12-05T18:10:59.081Z,58.98
2016-12-05T18:12:09.641Z,60.41
2016-12-05T18:13:20.424Z,62.81
2016-12-05T18:14:30.979Z,63.07
2016-12-05T18:15:42.044Z,63.53
2016-12-05T18:16:52.602Z,64.01
2016-12-05T18:18:03.113Z,64.78
2016-12-05T18:19:13.757Z,64.3
2016-12-05T18:20:24.250Z,65.53
2016-12-05T18:21:35.111Z,65.92
2016-12-05T18:22:45.591Z,65.92
2016-12-05T18:23:56.063Z,65.69
2016-12-05T18:25:06.538Z,65.59
2016-12-05T18:26:17.042Z,65.79
2016-12-05T18:27:42.071Z,65.72
2016-12-05T18:28:52.537Z,65.89
2016-12-05T18:30:03.505Z,67.14
2016-12-05T18:31:13.982Z,67.4
2016-12-05T18:32:24.446Z,67.69
2016-12-05T18:33:34.915Z,69.05
2016-12-05T18:34:45.668Z,69.11
2016-12-05T18:35:56.118Z,69.56
2016-12-05T18:37:06.575Z,70.34
2016-12-05T18:38:17.311Z,71.11
2016-12-05T18:39:27.779Z,71.17
2016-12-05T18:40:38.431Z,72.24
2016-12-05T18:41:48.910Z,71.84
2016-12-05T18:42:59.375Z,72.78
2016-12-05T18:44:24.883Z,72.97
2016-12-05T18:45:49.870Z,72.49
2016-12-05T18:47:00.333Z,72.58
2016-12-05T18:48:10.795Z,73.46
2016-12-05T18:49:21.262Z,73.16
2016-12-05T18:50:32.246Z,73.65
2016-12-05T18:53:07.754Z,73.46
2016-12-05T18:54:18.238Z,73.42
2016-12-05T18:55:43.259Z,73.16
2016-12-05T18:58:18.712Z,74.32
2016-12-05T18:59:43.725Z,73.71
2016-12-05T19:00:54.194Z,73.9
2016-12-05T19:02:04.756Z,74.13
2016-12-05T19:03:15.232Z,73.71
2016-12-05T19:04:26.187Z,74.38
2016-12-05T19:05:36.672Z,74.48
2016-12-05T19:06:47.140Z,74.87
2016-12-05T19:07:57.806Z,74.48
2016-12-05T19:09:08.293Z,74
2016-12-05T19:10:18.768Z,74
2016-12-05T19:11:29.240Z,74.29
2016-12-05T19:12:39.691Z,73.8
2016-12-05T19:13:50.738Z,74.1
2016-12-05T19:15:01.083Z,73.74
2016-12-05T19:16:11.927Z,73.84
2016-12-05T19:17:22.268Z,73.55
2016-12-05T19:18:32.608Z,73.55
2016-12-05T19:19:42.959Z,74.13
2016-12-05T19:20:53.309Z,73.46
2016-12-05T19:22:03.671Z,73.61
2016-12-05T19:23:14.005Z,74.19
2016-12-05T19:24:24.344Z,74
2016-12-05T19:25:34.879Z,73.42
2016-12-05T19:26:45.271Z,74.29
2016-12-05T19:27:55.622Z,74.1
2016-12-05T19:29:05.978Z,73.9
2016-12-05T19:30:16.313Z,74.1
2016-12-05T19:31:26.759Z,74.19
2016-12-05T19:32:37.095Z,73.52
2016-12-05T19:33:47.434Z,73.42
2016-12-05T19:34:58.252Z,73.61
2016-12-05T19:36:08.629Z,73.61
2016-12-05T19:37:19.079Z,73.52
2016-12-05T19:38:43.996Z,73.42
2016-12-05T19:39:54.342Z,73.42
2016-12-05T19:41:04.689Z,73.61
2016-12-05T19:42:15.072Z,73.52
2016-12-05T19:43:25.425Z,73.9
2016-12-05T19:44:35.758Z,74.19
2016-12-05T19:45:46.099Z,73.8
2016-12-05T19:46:56.436Z,74.38
2016-12-05T19:48:06.768Z,74.29
2016-12-05T19:49:17.121Z,74.19
2016-12-05T19:50:27.482Z,74.19
2016-12-05T19:51:37.816Z,74
2016-12-05T19:52:48.148Z,74.38
2016-12-05T19:53:58.486Z,74.38
2016-12-05T19:55:08.843Z,74.29
2016-12-05T19:56:19.671Z,74.77
2016-12-05T19:57:30.011Z,74.38
2016-12-05T19:58:40.359Z,74.1
2016-12-05T19:59:50.698Z,73.9
2016-12-05T20:01:01.045Z,74
2016-12-05T20:02:11.374Z,74.19
2016-12-05T20:03:21.714Z,74.1
2016-12-05T20:04:32.546Z,73.9
2016-12-05T20:05:42.894Z,74
2016-12-05T20:06:53.228Z,74.1
2016-12-05T20:08:03.571Z,74.1
2016-12-05T20:09:13.903Z,73.9
2016-12-05T20:10:24.256Z,74.38
2016-12-05T20:11:34.587Z,74.1
2016-12-05T20:12:44.924Z,74.48
2016-12-05T20:13:55.274Z,74.19
2016-12-05T20:15:05.631Z,74.58
2016-12-05T20:16:15.987Z,73.9
2016-12-05T20:17:26.316Z,73.8
2016-12-05T20:18:36.652Z,74.38
2016-12-05T20:19:46.996Z,74.44
2016-12-05T20:20:57.316Z,74.44
2016-12-05T20:22:07.630Z,74.83
2016-12-05T20:23:17.946Z,74.96
2016-12-05T20:24:28.263Z,74.83
2016-12-05T20:25:38.589Z,74.93
2016-12-05T20:26:49.388Z,75.22
2016-12-05T20:27:59.705Z,75.22
2016-12-05T20:29:10.125Z,75.22
2016-12-05T20:30:20.921Z,75.02
2016-12-05T20:31:31.247Z,75.89
2016-12-05T20:32:41.606Z,75.27
2016-12-05T20:33:52.021Z,76.43
2016-12-05T20:35:02.539Z,76.53
2016-12-05T20:36:12.953Z,75.95
2016-12-05T20:37:23.393Z,76.63
2016-12-05T20:38:33.814Z,76.53
2016-12-05T20:39:44.226Z,76.63
2016-12-05T20:40:54.845Z,77.4
2016-12-05T20:42:05.255Z,77.01
2016-12-05T20:43:15.671Z,76.63
2016-12-05T20:44:26.086Z,76.63
2016-12-05T20:45:36.499Z,76.98
2016-12-05T20:46:46.911Z,77.07
2016-12-05T20:47:57.321Z,77.36
2016-12-05T20:49:07.733Z,77.84
2016-12-05T20:50:18.623Z,77.65
2016-12-05T20:51:29.033Z,77.65
2016-12-05T20:52:40.446Z,78.19
2016-12-05T20:53:50.864Z,78.77
2016-12-05T20:55:01.321Z,79.16
2016-12-05T20:56:11.730Z,78.96
2016-12-05T20:57:36.717Z,79.06
2016-12-05T20:58:47.128Z,78.96
2016-12-05T20:59:57.538Z,79.44
2016-12-05T21:01:07.958Z,79.44
2016-12-05T21:02:18.366Z,79.25
2016-12-05T21:03:28.777Z,78.96
2016-12-05T21:04:39.190Z,79.74
2016-12-05T21:05:49.597Z,79.16
2016-12-05T21:07:00.003Z,79.35
2016-12-05T21:08:10.414Z,79.35
2016-12-05T21:09:21.507Z,79.16
2016-12-05T21:10:31.918Z,79.93
2016-12-05T21:11:42.326Z,79.64
2016-12-05T21:12:52.738Z,79.69
2016-12-05T21:14:03.146Z,79.41
2016-12-05T21:15:13.756Z,79.41
2016-12-05T21:16:24.167Z,78.83
2016-12-05T21:17:34.565Z,79.5
2016-12-05T21:18:44.884Z,79.89
2016-12-05T21:19:55.205Z,79.31
2016-12-05T21:21:05.725Z,79.6
2016-12-05T21:22:16.042Z,80.08
2016-12-05T21:23:26.356Z,79.79
2016-12-05T21:24:36.707Z,79.56
2016-12-05T21:25:47.023Z,79.46
2016-12-05T21:26:57.544Z,79.85
2016-12-05T21:28:07.864Z,79.75
2016-12-05T21:29:18.186Z,79.56
2016-12-05T21:30:28.503Z,79.85
2016-12-05T21:31:38.818Z,80.14
2016-12-05T21:32:49.370Z,80.23
2016-12-05T21:33:59.806Z,80.33
2016-12-05T21:35:10.240Z,80.62
2016-12-05T21:36:20.673Z,80.23
2016-12-05T21:37:31.109Z,80.52
2016-12-05T21:38:41.740Z,80.52
2016-12-05T21:39:52.176Z,80.52
2016-12-05T21:41:02.614Z,80.68
2016-12-05T21:42:13.050Z,80.14
2016-12-05T21:43:23.482Z,80.48
2016-12-05T21:44:33.919Z,80.1
2016-12-05T21:45:44.842Z,81.06
2016-12-05T21:46:55.288Z,80.96
2016-12-05T21:48:05.728Z,81.16
2016-12-05T21:49:16.166Z,81.25
2016-12-05T21:50:42.130Z,81.06
2016-12-05T21:51:52.562Z,81.54
2016-12-05T21:53:03.000Z,81.98
2016-12-05T21:54:13.437Z,81.6
2016-12-05T21:55:23.896Z,81.4
2016-12-05T21:56:34.533Z,81.3
2016-12-05T21:57:44.967Z,81.98
2016-12-05T21:58:55.401Z,81.4
2016-12-05T22:00:05.843Z,81.4
2016-12-05T22:01:16.293Z,81.6
2016-12-05T22:02:26.731Z,81.6
2016-12-05T22:03:37.168Z,81.6
2016-12-05T22:04:47.604Z,81.7
2016-12-05T22:05:58.040Z,81.79
2016-12-05T22:07:23.515Z,81.5
2016-12-05T22:08:33.958Z,81.75
2016-12-05T22:10:13.487Z,81.56
2016-12-05T22:11:23.922Z,81.75
2016-12-05T22:12:48.903Z,81.27
2016-12-05T22:13:59.345Z,81.56
2016-12-05T22:15:09.803Z,82.04
2016-12-05T22:16:20.729Z,81.46
2016-12-05T22:17:31.168Z,81.27
2016-12-05T22:18:41.805Z,81.27
2016-12-05T22:19:52.742Z,81.07
2016-12-05T22:21:03.186Z,81.27
2016-12-05T22:23:38.813Z,80.3
2016-12-05T22:24:49.249Z,80.02
2016-12-05T22:25:59.690Z,80.21
2016-12-05T22:27:10.134Z,79.35
2016-12-05T22:28:20.770Z,79.15
2016-12-05T22:31:10.746Z,79.15
2016-12-05T22:32:21.184Z,79.05
2016-12-05T22:33:31.621Z,78.77
2016-12-05T22:34:42.067Z,78
2016-12-05T22:35:52.510Z,78.44
2016-12-05T22:37:02.964Z,78.19
2016-12-05T22:38:13.894Z,77.96
2016-12-05T22:39:24.533Z,78.28
2016-12-05T22:40:34.975Z,78.28
2016-12-05T22:41:45.926Z,78.38
2016-12-05T22:42:56.376Z,77.71
2016-12-05T22:44:06.815Z,78.06
2016-12-05T22:45:17.265Z,77.51
2016-12-05T22:46:27.722Z,78.09
2016-12-05T22:47:38.178Z,77.48
2016-12-05T22:48:48.619Z,77.81
2016-12-05T22:49:59.072Z,77.81
2016-12-05T22:51:09.715Z,77.81
2016-12-05T22:52:20.171Z,77.33
2016-12-05T22:53:30.605Z,77.42
2016-12-05T22:54:41.055Z,77.23
2016-12-05T22:55:51.510Z,77.61
2016-12-05T22:57:02.659Z,77.04
2016-12-05T22:58:13.104Z,77.42
2016-12-05T22:59:23.555Z,76.84
2016-12-05T23:00:34.028Z,76.26
2016-12-05T23:01:44.489Z,75.98
2016-12-05T23:02:55.173Z,75.98
2016-12-05T23:04:05.611Z,76.07
2016-12-05T23:05:16.069Z,76.17
2016-12-05T23:06:26.532Z,76.17
2016-12-05T23:07:36.981Z,76.07
2016-12-05T23:09:02.183Z,76.17
2016-12-05T23:10:27.193Z,76.17
2016-12-05T23:11:37.654Z,75.88
2016-12-05T23:12:48.097Z,75.69
2016-12-05T23:13:58.559Z,76.17
2016-12-05T23:15:09.500Z,76.26
2016-12-05T23:16:20.450Z,76.17
2016-12-05T23:17:30.897Z,76.17
2016-12-05T23:18:41.349Z,75.02
2016-12-05T23:20:06.352Z,74.05
2016-12-05T23:21:16.801Z,72.8
2016-12-05T23:22:27.257Z,73.67
2016-12-05T23:23:37.717Z,73.47
2016-12-05T23:24:48.180Z,73.09
2016-12-05T23:25:59.230Z,72.9
2016-12-05T23:27:24.246Z,72.23
2016-12-05T23:28:34.711Z,72.32
2016-12-05T23:29:45.192Z,72.23
2016-12-05T23:30:55.661Z,71.65
2016-12-05T23:32:06.133Z,71.26
2016-12-05T23:33:16.621Z,71.84
2016-12-05T23:34:27.213Z,70.68
2016-12-05T23:35:37.968Z,70.78
2016-12-05T23:36:48.512Z,70.5
2016-12-05T23:37:59.076Z,69.92
2016-12-05T23:39:10.130Z,69.92
2016-12-05T23:40:20.682Z,69.63
2016-12-05T23:41:31.260Z,69.63
2016-12-05T23:42:41.812Z,69.63
2016-12-05T23:43:52.395Z,69.34
2016-12-05T23:45:02.952Z,69.82
2016-12-05T23:46:13.501Z,69.73
2016-12-05T23:47:24.247Z,70.11
2016-12-05T23:48:49.324Z,69.24
2016-12-05T23:49:59.867Z,69.06
2016-12-05T23:51:10.432Z,68.76
2016-12-05T23:52:21.004Z,69.15
2016-12-05T23:53:31.768Z,68.86
2016-12-05T23:54:42.361Z,69.15
2016-12-05T23:55:52.914Z,68.86
2016-12-05T23:57:03.462Z,69.06
2016-12-05T23:58:43.067Z,68.67
2016-12-05T23:59:53.619Z,68.86
